Time,TemperatureF,DewpointF,PressureIn,WindDirection,WindDirectionDegrees,WindSpeedMPH,WindSpeedGustMPH,Humidity,HourlyPrecipIn,Conditions,Clouds,dailyrainin,SolarRadiationWatts/m^2,SoftwareType,DateUTC
2014-10-23 00:02:00,54.5,48.7,30.06,East,86,14.0,22.0,81,0.06,,,1.81,0.0,meteohub,2014-10-23 03:02:00,
2014-10-23 00:07:00,54.7,48.9,30.06,ENE,69,5.0,22.0,81,0.06,,,1.81,0.0,meteohub,2014-10-23 03:07:00,
2014-10-23 00:12:00,54.9,49.1,30.06,ESE,107,3.0,20.0,81,0.06,,,0.01,0.0,meteohub,2014-10-23 03:12:00,
2014-10-23 00:17:00,54.9,49.1,30.06,East,96,1.0,27.0,81,0.06,,,0.02,0.0,meteohub,2014-10-23 03:17:00,
2014-10-23 00:22:00,54.9,49.1,30.05,NE,46,15.0,27.0,81,0.06,,,0.02,0.0,meteohub,2014-10-23 03:22:00,
2014-10-23 00:27:00,54.9,49.1,30.05,ENE,72,4.0,27.0,81,0.07,,,0.03,0.0,meteohub,2014-10-23 03:27:00,
2014-10-23 00:32:00,55.0,49.3,30.05,ENE,61,9.0,23.0,81,0.07,,,0.04,0.0,meteohub,2014-10-23 03:32:00,
2014-10-23 00:42:00,55.0,49.3,30.04,ESE,117,0.0,21.0,81,0.06,,,0.05,0.0,meteohub,2014-10-23 03:42:00,
2014-10-23 00:47:00,55.2,49.5,30.04,ENE,73,10.0,33.0,81,0.06,,,0.05,0.0,meteohub,2014-10-23 03:47:00,
2014-10-23 00:52:00,55.2,49.5,30.04,ESE,105,2.0,33.0,81,0.06,,,0.05,0.0,meteohub,2014-10-23 03:52:00,
2014-10-23 00:57:00,55.4,49.6,30.04,ENE,72,12.0,33.0,81,0.06,,,0.05,0.0,meteohub,2014-10-23 03:57:00,
2014-10-23 01:07:00,55.6,49.8,30.04,NE,54,7.0,23.0,81,0.05,,,0.06,0.0,meteohub,2014-10-23 04:07:00,
2014-10-23 01:12:00,55.6,49.8,30.04,ENE,69,12.0,24.0,81,0.04,,,0.06,0.0,meteohub,2014-10-23 04:12:00,
2014-10-23 01:17:00,55.6,49.8,30.03,East,82,7.0,24.0,81,0.05,,,0.06,0.0,meteohub,2014-10-23 04:17:00,
2014-10-23 01:22:00,55.6,49.8,30.04,East,94,7.0,24.0,81,0.04,,,0.06,0.0,meteohub,2014-10-23 04:22:00,
2014-10-23 01:32:00,55.6,49.8,30.03,East,96,6.0,20.0,81,0.02,,,0.06,0.0,meteohub,2014-10-23 04:32:00,
2014-10-23 01:37:00,55.6,49.8,30.03,East,88,15.0,24.0,81,0.02,,,0.06,0.0,meteohub,2014-10-23 04:37:00,
2014-10-23 01:47:00,55.6,49.8,30.03,NE,43,12.0,24.0,81,0.03,,,0.08,0.0,meteohub,2014-10-23 04:47:00,
2014-10-23 01:52:00,55.6,49.8,30.03,NNE,30,2.0,23.0,81,0.03,,,0.08,0.0,meteohub,2014-10-23 04:52:00,
2014-10-23 01:57:00,55.6,49.8,30.03,NE,48,16.0,22.0,81,0.03,,,0.08,0.0,meteohub,2014-10-23 04:57:00,
2014-10-23 02:02:00,55.6,49.8,30.04,NNE,26,9.0,20.0,81,0.03,,,0.08,0.0,meteohub,2014-10-23 05:02:00,
2014-10-23 02:12:00,55.6,49.8,30.03,ESE,102,9.0,23.0,81,0.04,,,0.09,0.0,meteohub,2014-10-23 05:12:00,
2014-10-23 02:17:00,55.6,49.8,30.03,ENE,76,7.0,23.0,81,0.03,,,0.09,0.0,meteohub,2014-10-23 05:17:00,
2014-10-23 02:22:00,55.6,49.8,30.03,ENE,71,6.0,27.0,81,0.05,,,0.11,0.0,meteohub,2014-10-23 05:22:00,
2014-10-23 02:32:00,55.6,49.8,30.03,ENE,71,10.0,19.0,81,0.06,,,0.12,0.0,meteohub,2014-10-23 05:32:00,
2014-10-23 02:42:00,55.6,49.8,30.02,ESE,123,1.0,23.0,81,0.06,,,0.13,0.0,meteohub,2014-10-23 05:42:00,
2014-10-23 02:47:00,55.6,49.8,30.03,ENE,67,9.0,23.0,81,0.05,,,0.13,0.0,meteohub,2014-10-23 05:47:00,
2014-10-23 02:52:00,55.8,50.0,30.02,ENE,67,18.0,23.0,81,0.06,,,0.13,0.0,meteohub,2014-10-23 05:52:00,
2014-10-23 02:57:00,55.8,50.0,30.01,ENE,73,5.0,22.0,81,0.06,,,0.14,0.0,meteohub,2014-10-23 05:57:00,
2014-10-23 03:02:00,55.8,50.0,30.02,SSW,208,6.0,22.0,81,0.06,,,0.14,0.0,meteohub,2014-10-23 06:02:00,
2014-10-23 03:12:00,55.8,50.0,30.01,ENE,63,31.0,31.0,81,0.07,,,0.16,0.0,meteohub,2014-10-23 06:12:00,
2014-10-23 03:17:00,55.6,49.8,30.01,East,93,7.0,31.0,81,0.07,,,0.17,0.0,meteohub,2014-10-23 06:17:00,
2014-10-23 03:22:00,55.6,49.8,30.01,NNE,15,14.0,31.0,81,0.09,,,0.20,0.0,meteohub,2014-10-23 06:22:00,
2014-10-23 03:32:00,55.4,49.6,30.00,North,5,18.0,25.0,81,0.11,,,0.23,0.0,meteohub,2014-10-23 06:32:00,
2014-10-23 03:37:00,55.4,49.6,30.00,NE,51,13.0,25.0,81,0.13,,,0.25,0.0,meteohub,2014-10-23 06:37:00,
2014-10-23 03:42:00,55.4,49.6,30.00,North,351,11.0,22.0,81,0.13,,,0.25,0.0,meteohub,2014-10-23 06:42:00,
2014-10-23 03:52:00,55.4,49.6,29.99,East,88,2.0,20.0,81,0.13,,,0.27,0.0,meteohub,2014-10-23 06:52:00,
2014-10-23 03:57:00,55.4,49.6,30.00,ENE,74,8.0,20.0,81,0.13,,,0.28,0.0,meteohub,2014-10-23 06:57:00,
2014-10-23 04:02:00,55.2,49.5,30.00,ENE,67,6.0,23.0,81,0.13,,,0.28,0.0,meteohub,2014-10-23 07:02:00,
2014-10-23 04:07:00,55.2,49.5,29.99,North,350,14.0,23.0,81,0.13,,,0.28,0.0,meteohub,2014-10-23 07:07:00,
2014-10-23 04:12:00,55.2,49.5,30.00,NNE,32,3.0,23.0,81,0.12,,,0.28,0.0,meteohub,2014-10-23 07:12:00,
2014-10-23 04:17:00,55.0,49.3,30.00,NE,45,4.0,23.0,81,0.10,,,0.28,0.0,meteohub,2014-10-23 07:17:00,
2014-10-23 04:22:00,55.0,49.3,30.00,South,184,4.0,24.0,81,0.08,,,0.28,0.0,meteohub,2014-10-23 07:22:00,
2014-10-23 04:27:00,55.0,49.3,29.99,East,87,14.0,24.0,81,0.06,,,0.28,0.0,meteohub,2014-10-23 07:27:00,
2014-10-23 04:32:00,54.9,49.1,30.00,ESE,106,18.0,24.0,81,0.06,,,0.29,0.0,meteohub,2014-10-23 07:32:00,
2014-10-23 04:37:00,54.9,49.1,29.99,ENE,63,6.0,23.0,81,0.04,,,0.29,0.0,meteohub,2014-10-23 07:37:00,
2014-10-23 04:42:00,54.7,48.9,29.99,ENE,67,1.0,23.0,81,0.03,,,0.29,0.0,meteohub,2014-10-23 07:42:00,
2014-10-23 04:47:00,54.5,48.7,30.00,East,88,7.0,23.0,81,0.03,,,0.30,0.0,meteohub,2014-10-23 07:47:00,
2014-10-23 04:52:00,54.3,48.6,30.00,NNE,23,6.0,23.0,81,0.03,,,0.30,0.0,meteohub,2014-10-23 07:52:00,
2014-10-23 04:57:00,54.1,48.4,30.00,ENE,68,6.0,20.0,81,0.02,,,0.30,0.0,meteohub,2014-10-23 07:57:00,
2014-10-23 05:02:00,54.0,48.2,30.00,NE,34,10.0,21.0,81,0.02,,,0.30,0.0,meteohub,2014-10-23 08:02:00,
2014-10-23 05:07:00,54.0,48.2,30.00,ENE,64,2.0,21.0,81,0.02,,,0.30,0.0,meteohub,2014-10-23 08:07:00,
2014-10-23 05:12:00,53.8,48.0,30.00,ESE,115,2.0,21.0,81,0.02,,,0.30,0.0,meteohub,2014-10-23 08:12:00,
2014-10-23 05:17:00,53.8,48.0,30.00,ENE,58,3.0,29.0,81,0.02,,,0.30,0.0,meteohub,2014-10-23 08:17:00,
2014-10-23 05:22:00,53.4,47.7,30.00,NE,44,6.0,29.0,81,0.02,,,0.30,0.0,meteohub,2014-10-23 08:22:00,
2014-10-23 05:27:00,53.4,47.7,29.99,ENE,59,13.0,29.0,81,0.01,,,0.30,0.0,meteohub,2014-10-23 08:27:00,
2014-10-23 05:32:00,53.4,47.7,29.99,NE,51,10.0,25.0,81,0.01,,,0.30,0.0,meteohub,2014-10-23 08:32:00,
2014-10-23 05:37:00,53.4,47.7,29.99,ENE,76,4.0,23.0,81,0.01,,,0.30,0.0,meteohub,2014-10-23 08:37:00,
2014-10-23 05:42:00,53.4,47.7,29.99,East,86,7.0,23.0,81,0.01,,,0.30,0.0,meteohub,2014-10-23 08:42:00,
2014-10-23 05:52:00,53.4,47.7,29.99,ESE,106,20.0,26.0,81,0.00,,,0.30,0.0,meteohub,2014-10-23 08:52:00,
2014-10-23 05:57:00,53.4,47.7,29.99,ENE,65,13.0,26.0,81,0.00,,,0.30,0.0,meteohub,2014-10-23 08:57:00,
2014-10-23 06:02:00,53.4,47.7,29.99,ESE,112,9.0,26.0,81,0.00,,,0.30,0.0,meteohub,2014-10-23 09:02:00,
2014-10-23 06:07:00,53.4,47.7,29.99,ENE,78,3.0,25.0,81,0.00,,,0.30,0.0,meteohub,2014-10-23 09:07:00,
2014-10-23 06:17:00,53.8,48.0,29.98,NE,53,5.0,22.0,81,0.00,,,0.30,0.0,meteohub,2014-10-23 09:17:00,
2014-10-23 06:22:00,53.8,48.0,29.99,East,96,8.0,22.0,81,0.00,,,0.30,0.0,meteohub,2014-10-23 09:22:00,
2014-10-23 06:27:00,54.0,48.2,29.99,East,96,4.0,22.0,81,0.00,,,0.30,0.0,meteohub,2014-10-23 09:27:00,
2014-10-23 06:32:00,54.0,48.2,29.98,ENE,66,13.0,26.0,81,0.00,,,0.30,0.0,meteohub,2014-10-23 09:32:00,
2014-10-23 06:37:00,54.0,48.2,29.98,East,84,10.0,26.0,81,0.00,,,0.31,0.0,meteohub,2014-10-23 09:37:00,
2014-10-23 06:42:00,54.1,48.0,29.98,ENE,76,3.0,21.0,80,0.01,,,0.31,0.0,meteohub,2014-10-23 09:42:00,
2014-10-23 06:52:00,54.1,48.0,29.98,East,83,3.0,21.0,80,0.04,,,0.36,0.0,meteohub,2014-10-23 09:52:00,
2014-10-23 07:02:00,54.3,48.6,29.98,NE,49,10.0,31.0,81,0.09,,,0.41,0.0,meteohub,2014-10-23 10:02:00,
2014-10-23 07:07:00,54.3,48.6,29.98,NE,46,5.0,31.0,81,0.12,,,0.42,0.0,meteohub,2014-10-23 10:07:00,
2014-10-23 07:12:00,54.3,48.6,29.97,ENE,70,2.0,23.0,81,0.12,,,0.43,0.0,meteohub,2014-10-23 10:12:00,
2014-10-23 07:17:00,54.3,48.6,29.97,East,80,14.0,23.0,81,0.17,,,0.46,0.0,meteohub,2014-10-23 10:17:00,
2014-10-23 07:27:00,54.1,48.4,29.97,NE,46,9.0,23.0,81,0.21,,,0.51,0.0,meteohub,2014-10-23 10:27:00,
2014-10-23 07:32:00,54.1,48.4,29.97,NE,46,15.0,29.0,81,0.21,,,0.52,0.0,meteohub,2014-10-23 10:32:00,
2014-10-23 07:42:00,54.3,48.6,29.97,North,355,5.0,22.0,81,0.22,,,0.54,0.0,meteohub,2014-10-23 10:42:00,
2014-10-23 07:47:00,54.3,48.6,29.96,ENE,67,10.0,19.0,81,0.20,,,0.54,0.0,meteohub,2014-10-23 10:47:00,
2014-10-23 07:52:00,54.3,48.6,29.96,NE,43,15.0,24.0,81,0.17,,,0.55,0.0,meteohub,2014-10-23 10:52:00,
2014-10-23 07:57:00,54.3,48.6,29.96,East,86,3.0,24.0,81,0.17,,,0.56,0.0,meteohub,2014-10-23 10:57:00,
2014-10-23 08:02:00,54.1,48.4,29.96,ENE,63,10.0,24.0,81,0.16,,,0.57,0.0,meteohub,2014-10-23 11:02:00,
2014-10-23 08:07:00,54.1,48.4,29.96,ENE,57,4.0,25.0,81,0.16,,,0.57,0.0,meteohub,2014-10-23 11:07:00,
2014-10-23 08:17:00,54.1,48.4,29.96,East,90,2.0,25.0,81,0.10,,,0.57,0.0,meteohub,2014-10-23 11:17:00,
2014-10-23 08:22:00,54.3,48.6,29.96,ENE,76,4.0,25.0,81,0.08,,,0.57,5.0,meteohub,2014-10-23 11:22:00,
2014-10-23 08:27:00,54.1,48.4,29.96,NE,51,3.0,25.0,81,0.06,,,0.58,7.0,meteohub,2014-10-23 11:27:00,
2014-10-23 08:32:00,54.1,48.4,29.97,East,83,3.0,18.0,81,0.06,,,0.59,0.0,meteohub,2014-10-23 11:32:00,
2014-10-23 08:37:00,54.1,48.4,29.97,ENE,64,4.0,19.0,81,0.06,,,0.60,0.0,meteohub,2014-10-23 11:37:00,
2014-10-23 08:42:00,54.1,48.4,29.96,East,87,4.0,19.0,81,0.06,,,0.60,0.0,meteohub,2014-10-23 11:42:00,
2014-10-23 08:52:00,54.1,48.4,29.97,ESE,117,12.0,29.0,81,0.09,,,0.65,7.0,meteohub,2014-10-23 11:52:00,
2014-10-23 09:02:00,54.3,48.6,29.97,NE,50,3.0,24.0,81,0.09,,,0.65,11.0,meteohub,2014-10-23 12:02:00,
2014-10-23 09:07:00,54.3,48.6,29.98,ESE,103,12.0,26.0,81,0.09,,,0.66,9.0,meteohub,2014-10-23 12:07:00,
2014-10-23 09:12:00,54.3,48.6,29.97,ENE,64,9.0,26.0,81,0.09,,,0.67,9.0,meteohub,2014-10-23 12:12:00,
2014-10-23 09:22:00,54.7,48.9,29.97,East,89,5.0,26.0,81,0.10,,,0.68,11.0,meteohub,2014-10-23 12:22:00,
2014-10-23 09:32:00,54.7,48.9,29.97,ENE,69,8.0,24.0,81,0.09,,,0.69,14.0,meteohub,2014-10-23 12:32:00,
2014-10-23 09:37:00,54.9,49.1,29.97,ESE,103,7.0,20.0,81,0.09,,,0.69,11.0,meteohub,2014-10-23 12:37:00,
2014-10-23 09:42:00,54.9,49.1,29.97,NNE,26,11.0,23.0,81,0.09,,,0.69,14.0,meteohub,2014-10-23 12:42:00,
2014-10-23 09:47:00,54.9,49.1,29.97,NE,41,10.0,23.0,81,0.06,,,0.69,11.0,meteohub,2014-10-23 12:47:00,
2014-10-23 09:57:00,55.0,49.3,29.97,NE,43,2.0,23.0,81,0.04,,,0.69,12.0,meteohub,2014-10-23 12:57:00,
2014-10-23 10:07:00,55.0,49.3,29.97,ENE,64,4.0,21.0,81,0.04,,,0.70,16.0,meteohub,2014-10-23 13:07:00,
2014-10-23 10:12:00,55.0,49.3,29.96,ENE,61,15.0,21.0,81,0.02,,,0.70,16.0,meteohub,2014-10-23 13:12:00,
2014-10-23 10:17:00,55.0,49.3,29.96,SE,124,15.0,21.0,81,0.04,,,0.71,16.0,meteohub,2014-10-23 13:17:00,
2014-10-23 10:27:00,55.0,49.3,29.96,ESE,109,3.0,18.0,81,0.05,,,0.72,14.0,meteohub,2014-10-23 13:27:00,
2014-10-23 10:32:00,55.0,49.3,29.96,NE,44,3.0,18.0,81,0.05,,,0.73,11.0,meteohub,2014-10-23 13:32:00,
2014-10-23 10:37:00,55.0,49.3,29.96,ENE,70,10.0,24.0,81,0.05,,,0.73,12.0,meteohub,2014-10-23 13:37:00,
2014-10-23 10:42:00,55.0,49.3,29.96,ESE,122,11.0,24.0,81,0.04,,,0.73,14.0,meteohub,2014-10-23 13:42:00,
2014-10-23 10:47:00,55.0,49.3,29.96,ENE,67,13.0,24.0,81,0.05,,,0.73,16.0,meteohub,2014-10-23 13:47:00,
2014-10-23 10:52:00,55.0,49.3,29.96,East,93,7.0,21.0,81,0.05,,,0.74,18.0,meteohub,2014-10-23 13:52:00,
2014-10-23 10:57:00,55.0,49.3,29.96,ENE,60,14.0,21.0,81,0.05,,,0.74,16.0,meteohub,2014-10-23 13:57:00,
2014-10-23 11:02:00,55.0,49.3,29.96,NE,52,3.0,19.0,81,0.05,,,0.74,16.0,meteohub,2014-10-23 14:02:00,
2014-10-23 11:07:00,55.0,49.3,29.95,East,79,9.0,18.0,81,0.04,,,0.74,19.0,meteohub,2014-10-23 14:07:00,
2014-10-23 11:12:00,55.0,49.3,29.95,ENE,63,8.0,18.0,81,0.04,,,0.75,16.0,meteohub,2014-10-23 14:12:00,
2014-10-23 11:17:00,55.0,49.3,29.95,NE,44,10.0,18.0,81,0.03,,,0.75,18.0,meteohub,2014-10-23 14:17:00,
2014-10-23 11:22:00,55.2,49.5,29.95,East,88,12.0,18.0,81,0.02,,,0.75,14.0,meteohub,2014-10-23 14:22:00,
2014-10-23 11:32:00,55.2,49.5,29.94,East,89,8.0,25.0,81,0.02,,,0.75,19.0,meteohub,2014-10-23 14:32:00,
2014-10-23 11:37:00,55.2,49.5,29.94,ENE,67,4.0,23.0,81,0.02,,,0.75,23.0,meteohub,2014-10-23 14:37:00,
2014-10-23 11:42:00,55.2,49.5,29.94,SE,128,12.0,23.0,81,0.02,,,0.75,19.0,meteohub,2014-10-23 14:42:00,
2014-10-23 11:47:00,55.2,49.5,29.94,ENE,65,9.0,23.0,81,0.01,,,0.75,21.0,meteohub,2014-10-23 14:47:00,
2014-10-23 11:52:00,55.2,49.5,29.94,ESE,106,4.0,23.0,81,0.01,,,0.75,23.0,meteohub,2014-10-23 14:52:00,
2014-10-23 12:02:00,55.2,49.5,29.93,East,81,14.0,24.0,81,0.01,,,0.75,28.0,meteohub,2014-10-23 15:02:00,
2014-10-23 12:07:00,55.2,49.5,29.92,ENE,64,3.0,24.0,81,0.02,,,0.76,30.0,meteohub,2014-10-23 15:07:00,
2014-10-23 12:17:00,55.4,49.6,29.92,ENE,64,9.0,25.0,81,0.01,,,0.76,26.0,meteohub,2014-10-23 15:17:00,
2014-10-23 12:22:00,55.4,50.0,29.92,ENE,73,15.0,25.0,82,0.01,,,0.76,28.0,meteohub,2014-10-23 15:22:00,
2014-10-23 12:32:00,55.6,49.8,29.91,East,80,14.0,25.0,81,0.01,,,0.76,32.0,meteohub,2014-10-23 15:32:00,
2014-10-23 12:42:00,55.6,49.8,29.91,ENE,70,8.0,26.0,81,0.01,,,0.76,33.0,meteohub,2014-10-23 15:42:00,
2014-10-23 12:47:00,55.6,49.8,29.91,ENE,71,2.0,19.0,81,0.01,,,0.76,33.0,meteohub,2014-10-23 15:47:00,
2014-10-23 12:52:00,55.6,50.2,29.91,NNE,28,2.0,31.0,82,0.02,,,0.76,26.0,meteohub,2014-10-23 15:52:00,
2014-10-23 12:57:00,55.6,49.8,29.91,ENE,57,13.0,31.0,81,0.02,,,0.76,30.0,meteohub,2014-10-23 15:57:00,
2014-10-23 13:02:00,55.6,50.2,29.90,NE,39,11.0,31.0,82,0.02,,,0.77,26.0,meteohub,2014-10-23 16:02:00,